createdAt,value
2022-12-22T00:01:59.964Z,4.47
2022-12-22T00:04:44.975Z,4.00
2022-12-22T00:07:29.776Z,5.32
2022-12-22T00:10:14.531Z,4.72
2022-12-22T00:12:59.390Z,4.63
2022-12-22T00:15:45.051Z,4.45
2022-12-22T00:18:33.868Z,5.38
2022-12-22T00:21:19.170Z,5.28
2022-12-22T00:24:03.886Z,5.22
2022-12-22T00:26:49.761Z,5.82
2022-12-22T00:32:20.679Z,5.93
2022-12-22T00:35:06.036Z,5.78
2022-12-22T00:37:53.402Z,5.35
2022-12-22T00:40:45.684Z,5.93
2022-12-22T00:43:30.990Z,5.13
2022-12-22T00:46:17.446Z,5.75
2022-12-22T00:49:03.200Z,5.90
2022-12-22T00:51:50.049Z,6.50
2022-12-22T00:54:36.973Z,6.07
2022-12-22T00:57:22.792Z,5.75
2022-12-22T01:00:08.730Z,6.50
2022-12-22T01:09:50.342Z,4.85
2022-12-22T01:12:45.365Z,5.50
2022-12-22T01:15:34.145Z,4.70
2022-12-22T01:18:18.940Z,5.10
2022-12-22T01:21:03.740Z,4.65
2022-12-22T01:23:48.512Z,4.82
2022-12-22T01:26:33.866Z,4.97
2022-12-22T01:29:19.109Z,5.10
2022-12-22T01:32:03.916Z,4.90
2022-12-22T01:34:48.734Z,4.43
2022-12-22T01:37:33.681Z,4.95
2022-12-22T01:40:18.341Z,4.30
2022-12-22T01:43:03.382Z,4.85
2022-12-22T01:45:51.168Z,4.73
2022-12-22T01:48:38.426Z,4.13
2022-12-22T01:51:32.781Z,4.53
2022-12-22T01:54:18.190Z,4.60
2022-12-22T01:57:05.051Z,4.78
2022-12-22T01:59:50.066Z,4.75
2022-12-22T02:02:37.060Z,4.67
2022-12-22T02:05:24.382Z,4.95
2022-12-22T02:08:28.720Z,4.70
2022-12-22T02:11:43.699Z,5.15
2022-12-22T02:14:59.315Z,4.72
2022-12-22T02:18:09.928Z,4.68
2022-12-22T02:21:12.457Z,4.53
2022-12-22T02:24:20.601Z,5.38
2022-12-22T02:27:09.601Z,5.15
2022-12-22T02:30:00.000Z,5.35
2022-12-22T02:32:45.474Z,5.47
2022-12-22T02:35:35.385Z,5.50
2022-12-22T02:38:58.949Z,5.28
2022-12-22T02:42:13.538Z,4.97
2022-12-22T02:45:27.611Z,4.65
2022-12-22T02:48:52.539Z,4.63
2022-12-22T02:51:42.274Z,4.07
2022-12-22T02:54:27.753Z,4.38
2022-12-22T02:57:12.985Z,4.45
2022-12-22T02:59:57.795Z,4.90
2022-12-22T03:02:42.916Z,4.47
2022-12-22T03:05:27.904Z,4.80
2022-12-22T03:08:12.959Z,4.40
2022-12-22T03:10:57.797Z,4.43
2022-12-22T03:13:42.613Z,4.85
2022-12-22T03:16:27.213Z,4.30
2022-12-22T03:19:12.041Z,4.38
2022-12-22T03:21:56.966Z,4.72
2022-12-22T03:24:41.932Z,4.53
2022-12-22T03:27:08.276Z,4.47
2022-12-22T03:29:34.570Z,4.60
2022-12-22T03:32:00.993Z,4.20
2022-12-22T03:34:27.356Z,4.63
2022-12-22T03:36:53.687Z,4.88
2022-12-22T03:39:20.034Z,4.28
2022-12-22T03:42:05.095Z,3.95
2022-12-22T03:44:49.912Z,4.03
2022-12-22T03:47:16.368Z,3.67
2022-12-22T03:49:42.718Z,4.07
2022-12-22T03:52:09.058Z,3.35
2022-12-22T03:54:35.399Z,3.70
2022-12-22T03:57:01.723Z,3.67
2022-12-22T03:59:28.152Z,3.78
2022-12-22T04:01:55.132Z,3.10
2022-12-22T04:04:24.209Z,3.10
2022-12-22T04:06:51.161Z,3.90
2022-12-22T04:09:17.784Z,3.50
2022-12-22T04:12:03.114Z,3.00
2022-12-22T04:14:33.877Z,3.47
2022-12-22T04:17:01.307Z,2.90
2022-12-22T04:19:27.624Z,2.80
2022-12-22T04:21:54.574Z,2.70
2022-12-22T04:24:20.986Z,2.88
2022-12-22T04:26:47.333Z,2.58
2022-12-22T04:29:13.700Z,2.70
2022-12-22T04:31:40.113Z,2.60
2022-12-22T04:34:06.509Z,2.72
2022-12-22T04:36:32.897Z,2.92
2022-12-22T04:38:59.308Z,3.10
2022-12-22T04:41:26.083Z,2.50
2022-12-22T04:43:52.635Z,3.03
2022-12-22T04:46:19.027Z,2.83
2022-12-22T04:48:45.516Z,3.33
2022-12-22T04:51:11.802Z,2.95
2022-12-22T04:53:38.166Z,2.80
2022-12-22T04:56:07.025Z,2.53
2022-12-22T04:58:33.871Z,2.60
2022-12-22T05:01:11.790Z,2.80
2022-12-22T05:03:38.568Z,2.63
2022-12-22T05:06:05.247Z,2.65
2022-12-22T05:08:31.600Z,2.70
2022-12-22T05:10:57.954Z,2.95
2022-12-22T05:13:24.229Z,2.80
2022-12-22T05:15:50.569Z,2.83
2022-12-22T05:18:16.919Z,2.88
2022-12-22T05:20:43.263Z,3.22
2022-12-22T05:23:09.732Z,2.88
2022-12-22T05:25:36.226Z,2.70
2022-12-22T05:28:02.716Z,2.90
2022-12-22T05:30:29.107Z,2.75
2022-12-22T05:32:55.454Z,2.63
2022-12-22T05:35:21.747Z,2.83
2022-12-22T05:37:48.093Z,2.30
2022-12-22T05:40:14.599Z,2.00
2022-12-22T05:42:40.915Z,2.80
2022-12-22T05:45:18.624Z,2.25
2022-12-22T05:47:47.406Z,6.07
2022-12-22T05:50:15.677Z,2.58
2022-12-22T05:52:42.128Z,1.80
2022-12-22T05:55:10.097Z,1.90
2022-12-22T05:57:36.796Z,1.58
2022-12-22T06:00:06.360Z,1.55
2022-12-22T06:02:32.870Z,1.73
2022-12-22T06:04:59.298Z,1.98
2022-12-22T06:07:25.624Z,1.60
2022-12-22T06:09:51.945Z,1.40
2022-12-22T06:12:18.280Z,1.35
2022-12-22T06:14:44.595Z,1.30
2022-12-22T06:17:10.999Z,1.55
2022-12-22T06:19:37.349Z,1.80
2022-12-22T06:22:03.784Z,1.70
2022-12-22T06:24:30.060Z,2.72
2022-12-22T06:26:56.433Z,2.45
2022-12-22T06:29:22.855Z,1.38
2022-12-22T06:31:49.347Z,1.13
2022-12-22T06:34:17.893Z,1.20
2022-12-22T06:36:46.067Z,1.60
2022-12-22T06:39:13.927Z,1.23
2022-12-22T06:41:59.354Z,1.10
2022-12-22T06:44:25.829Z,0.98
2022-12-22T06:46:52.753Z,1.08
2022-12-22T06:49:20.275Z,1.30
2022-12-22T06:51:46.744Z,0.73
2022-12-22T06:54:13.297Z,0.75
2022-12-22T06:56:39.712Z,0.80
2022-12-22T06:59:06.370Z,0.80
2022-12-22T07:01:32.908Z,0.70
2022-12-22T07:03:59.637Z,0.70
2022-12-22T07:06:26.047Z,0.70
2022-12-22T07:08:52.393Z,0.82
2022-12-22T07:11:18.888Z,0.65
2022-12-22T07:13:45.444Z,0.80
2022-12-22T07:16:11.949Z,0.70
2022-12-22T07:18:41.122Z,0.93
2022-12-22T07:21:10.353Z,0.60
2022-12-22T07:23:37.499Z,0.77
2022-12-22T07:26:04.745Z,0.80
2022-12-22T07:28:34.129Z,0.60
2022-12-22T07:31:00.581Z,0.68
2022-12-22T07:33:27.144Z,0.98
2022-12-22T07:36:12.863Z,0.80
2022-12-22T07:38:42.026Z,0.90
2022-12-22T07:41:29.783Z,0.80
2022-12-22T07:43:58.427Z,1.00
2022-12-22T07:46:27.720Z,0.93
2022-12-22T07:49:12.874Z,1.13
2022-12-22T07:51:42.786Z,0.80
2022-12-22T07:54:14.304Z,0.90
2022-12-22T07:56:40.681Z,1.00
2022-12-22T07:59:07.497Z,0.80
2022-12-22T08:01:34.014Z,0.90
2022-12-22T08:04:00.585Z,1.25
2022-12-22T08:06:27.016Z,1.10
2022-12-22T08:08:53.486Z,0.68
2022-12-22T08:11:19.972Z,0.75
2022-12-22T08:13:46.580Z,0.70
2022-12-22T08:16:14.105Z,0.68
2022-12-22T08:18:40.857Z,0.80
2022-12-22T08:21:08.296Z,0.80
2022-12-22T08:23:35.481Z,0.90
2022-12-22T08:26:10.878Z,0.80
2022-12-22T08:28:43.794Z,0.85
2022-12-22T08:31:10.398Z,1.20
2022-12-22T08:33:37.086Z,1.15
2022-12-22T08:36:07.973Z,0.88
2022-12-22T08:38:36.293Z,0.90
2022-12-22T08:41:02.734Z,0.98
2022-12-22T08:43:32.648Z,1.10
2022-12-22T08:45:58.993Z,0.95
2022-12-22T08:48:25.314Z,1.10
2022-12-22T08:50:51.678Z,1.20
2022-12-22T08:53:37.536Z,1.30
2022-12-22T08:56:04.545Z,1.00
2022-12-22T08:58:30.838Z,1.30
2022-12-22T09:00:57.817Z,1.52
2022-12-22T09:03:25.325Z,2.28
2022-12-22T09:05:51.716Z,1.48
2022-12-22T09:08:18.075Z,1.55
2022-12-22T09:10:44.438Z,1.33
2022-12-22T09:13:10.806Z,1.17
2022-12-22T09:15:37.492Z,1.30
2022-12-22T09:18:03.950Z,1.58
2022-12-22T09:20:30.331Z,1.27
2022-12-22T09:22:56.616Z,1.65
2022-12-22T09:25:22.906Z,1.00
2022-12-22T09:27:49.199Z,1.70
2022-12-22T09:30:15.660Z,2.08
2022-12-22T09:32:42.016Z,1.30
2022-12-22T09:35:08.582Z,1.60
2022-12-22T09:37:34.885Z,1.30
2022-12-22T09:40:01.227Z,1.17
2022-12-22T09:42:28.396Z,1.40
2022-12-22T09:44:54.811Z,1.90
2022-12-22T09:47:37.708Z,1.73
2022-12-22T09:50:08.719Z,1.00
2022-12-22T09:52:35.076Z,1.33
2022-12-22T09:55:02.958Z,1.50
2022-12-22T09:57:31.978Z,0.93
2022-12-22T10:00:07.030Z,1.40
2022-12-22T10:02:50.402Z,2.00
2022-12-22T10:05:30.908Z,1.45
2022-12-22T10:08:02.416Z,0.90
2022-12-22T10:10:31.238Z,1.15
2022-12-22T10:13:00.720Z,0.80
2022-12-22T10:15:33.919Z,0.70
2022-12-22T10:18:16.108Z,0.98
2022-12-22T10:20:45.287Z,0.80
2022-12-22T10:23:27.950Z,1.42
2022-12-22T10:28:47.503Z,0.90
2022-12-22T10:31:16.466Z,0.60
2022-12-22T10:33:47.493Z,0.80
2022-12-22T10:36:21.402Z,0.80
2022-12-22T10:39:10.732Z,1.05
2022-12-22T10:41:47.542Z,0.80
2022-12-22T10:44:25.337Z,0.57
2022-12-22T10:46:59.877Z,1.15
2022-12-22T10:52:29.173Z,1.15
2022-12-22T10:55:20.541Z,0.82
2022-12-22T10:57:47.465Z,0.70
2022-12-22T11:00:30.631Z,0.73
2022-12-22T11:02:59.650Z,0.57
2022-12-22T11:05:26.601Z,1.00
2022-12-22T11:07:54.977Z,0.75
2022-12-22T11:10:39.479Z,0.95
2022-12-22T11:13:40.149Z,0.60
2022-12-22T11:16:29.597Z,0.43
2022-12-22T11:19:36.439Z,0.50
2022-12-22T11:25:03.208Z,0.47
2022-12-22T11:27:50.794Z,0.60
2022-12-22T11:30:24.177Z,0.30
2022-12-22T11:33:20.348Z,0.55
2022-12-22T11:36:05.369Z,0.40
2022-12-22T11:39:06.475Z,0.70
2022-12-22T11:41:50.280Z,0.52
2022-12-22T11:44:38.051Z,0.70
2022-12-22T11:47:13.281Z,0.98
2022-12-22T11:50:00.289Z,1.17
2022-12-22T11:53:24.071Z,0.60
2022-12-22T11:56:16.299Z,0.30
2022-12-22T11:59:07.448Z,0.30
2022-12-22T12:01:50.622Z,0.40
2022-12-22T12:04:56.217Z,0.40
2022-12-22T12:07:28.655Z,0.20
2022-12-22T12:10:32.920Z,0.30
2022-12-22T12:13:16.852Z,0.28
2022-12-22T12:15:53.384Z,0.38
2022-12-22T12:18:42.670Z,0.30
2022-12-22T12:21:27.596Z,0.30
2022-12-22T12:23:59.919Z,0.38
2022-12-22T12:26:31.928Z,0.30
2022-12-22T12:29:19.476Z,0.10
2022-12-22T12:32:01.686Z,0.30
2022-12-22T12:34:33.271Z,0.30
2022-12-22T12:37:15.239Z,0.30
2022-12-22T12:40:06.562Z,0.40
2022-12-22T12:42:39.504Z,0.20
2022-12-22T12:45:32.005Z,0.25
2022-12-22T12:48:20.318Z,0.32
2022-12-22T12:50:54.373Z,0.22
2022-12-22T12:53:23.020Z,0.28
2022-12-22T12:55:54.614Z,0.28
2022-12-22T12:58:39.250Z,0.30
2022-12-22T13:01:27.700Z,0.45
2022-12-22T13:04:03.611Z,0.35
2022-12-22T13:06:49.141Z,0.60
2022-12-22T13:09:49.278Z,0.60
2022-12-22T13:12:53.865Z,0.50
2022-12-22T13:15:46.377Z,0.40
2022-12-22T13:18:15.769Z,0.50
2022-12-22T13:20:42.478Z,0.60
2022-12-22T13:23:14.950Z,0.70
2022-12-22T13:25:58.792Z,1.10
2022-12-22T13:28:27.264Z,0.85
2022-12-22T13:31:04.747Z,0.50
2022-12-22T13:33:36.968Z,0.40
2022-12-22T13:36:04.878Z,1.85
2022-12-22T13:38:36.913Z,0.52
2022-12-22T13:41:13.890Z,0.43
2022-12-22T13:43:44.030Z,0.30
2022-12-22T13:46:11.220Z,0.30
2022-12-22T13:48:46.242Z,0.30
2022-12-22T13:51:22.218Z,0.38
2022-12-22T13:54:08.549Z,0.25
2022-12-22T13:56:50.478Z,0.30
2022-12-22T13:59:36.589Z,0.47
2022-12-22T14:02:23.291Z,0.60
2022-12-22T14:05:05.955Z,0.60
2022-12-22T14:07:32.557Z,0.50
2022-12-22T14:09:58.905Z,0.60
2022-12-22T14:12:29.999Z,0.55
2022-12-22T14:14:58.287Z,0.73
2022-12-22T14:17:35.449Z,0.68
2022-12-22T14:20:15.834Z,0.40
2022-12-22T14:22:53.124Z,0.70
2022-12-22T14:25:23.799Z,0.60
2022-12-22T14:27:55.843Z,0.45
2022-12-22T14:30:26.584Z,0.70
2022-12-22T14:32:55.913Z,0.85
2022-12-22T14:35:22.601Z,1.20
2022-12-22T14:38:25.366Z,1.05
2022-12-22T14:40:57.291Z,1.10
2022-12-22T14:43:30.399Z,0.80
2022-12-22T14:46:06.662Z,0.95
2022-12-22T14:48:37.932Z,0.80
2022-12-22T14:51:05.379Z,0.90
2022-12-22T14:53:45.010Z,1.10
2022-12-22T14:56:16.496Z,1.20
2022-12-22T14:58:45.036Z,0.80
2022-12-22T15:01:18.658Z,0.90
2022-12-22T15:03:58.591Z,0.80
2022-12-22T15:06:29.159Z,1.00
2022-12-22T15:09:11.865Z,1.00
2022-12-22T15:11:42.787Z,1.60
2022-12-22T15:14:16.646Z,1.73
2022-12-22T15:16:44.218Z,2.00
2022-12-22T15:19:14.348Z,2.17
2022-12-22T15:21:41.000Z,6.20
2022-12-22T15:24:15.654Z,3.97
2022-12-22T15:26:42.927Z,2.97
2022-12-22T15:29:09.269Z,2.40
2022-12-22T15:31:36.832Z,1.40
2022-12-22T15:34:09.966Z,1.10
2022-12-22T15:36:36.328Z,1.00
2022-12-22T15:39:02.965Z,0.90
2022-12-22T15:41:29.285Z,1.13
2022-12-22T15:43:58.618Z,0.90
2022-12-22T15:46:25.362Z,1.20
2022-12-22T15:48:52.346Z,1.30
2022-12-22T15:51:28.181Z,1.35
2022-12-22T15:53:56.274Z,1.20
2022-12-22T15:56:27.646Z,1.20
2022-12-22T15:58:55.030Z,1.13
2022-12-22T16:01:21.518Z,1.05
2022-12-22T16:03:48.026Z,1.02
2022-12-22T16:06:17.256Z,1.50
2022-12-22T16:08:49.506Z,2.05
2022-12-22T16:11:16.141Z,2.35
2022-12-22T16:13:42.598Z,1.45
2022-12-22T16:16:09.029Z,1.77
2022-12-22T16:18:35.620Z,2.00
2022-12-22T16:21:08.114Z,1.75
2022-12-22T16:23:36.543Z,1.40
2022-12-22T16:26:04.745Z,1.08
2022-12-22T16:28:32.808Z,1.40
2022-12-22T16:30:59.732Z,1.20
2022-12-22T16:33:26.313Z,1.00
2022-12-22T16:35:52.692Z,1.40
2022-12-22T16:38:19.680Z,2.00
2022-12-22T16:40:50.492Z,1.77
2022-12-22T16:46:16.127Z,1.70
2022-12-22T16:48:46.021Z,1.85
2022-12-22T16:51:17.404Z,4.10
2022-12-22T16:53:43.857Z,3.75
2022-12-22T16:56:20.260Z,6.03
2022-12-22T16:58:48.520Z,3.58
2022-12-22T17:01:33.835Z,4.43
2022-12-22T17:04:11.161Z,3.13
2022-12-22T17:06:37.964Z,2.20
2022-12-22T17:09:07.239Z,2.00
2022-12-22T17:11:34.425Z,1.80
2022-12-22T17:14:13.580Z,1.40
2022-12-22T17:16:39.951Z,1.40
2022-12-22T17:19:06.329Z,2.00
2022-12-22T17:21:32.874Z,1.90
2022-12-22T17:24:04.669Z,1.90
2022-12-22T17:26:33.319Z,1.85
2022-12-22T17:29:00.115Z,2.10
2022-12-22T17:31:27.017Z,1.98
2022-12-22T17:33:53.801Z,2.10
2022-12-22T17:36:30.839Z,1.83
2022-12-22T17:38:58.096Z,2.22
2022-12-22T17:41:24.805Z,1.90
2022-12-22T17:43:51.165Z,2.17
2022-12-22T17:46:19.632Z,2.15
2022-12-22T17:48:47.024Z,2.85
2022-12-22T17:51:20.698Z,2.63
2022-12-22T17:53:47.841Z,3.80
2022-12-22T17:56:23.025Z,2.55
2022-12-22T17:58:49.868Z,3.10
2022-12-22T18:01:28.588Z,3.67
2022-12-22T18:03:56.311Z,3.67
2022-12-22T18:06:27.293Z,3.55
2022-12-22T18:08:55.220Z,2.47
2022-12-22T18:11:23.724Z,3.63
2022-12-22T18:13:50.658Z,2.70
2022-12-22T18:16:20.281Z,3.15
2022-12-22T18:18:47.443Z,3.28
2022-12-22T18:21:17.507Z,3.20
2022-12-22T18:23:49.847Z,3.85
2022-12-22T18:26:23.629Z,3.63
2022-12-22T18:28:50.447Z,3.53
2022-12-22T18:31:17.531Z,3.58
2022-12-22T18:33:44.046Z,3.15
2022-12-22T18:36:26.918Z,3.75
2022-12-22T18:38:53.666Z,3.55
2022-12-22T18:41:21.864Z,3.17
2022-12-22T18:43:48.316Z,3.33
2022-12-22T18:46:14.763Z,3.13
2022-12-22T18:48:41.226Z,3.70
2022-12-22T18:51:19.621Z,3.40
2022-12-22T18:53:46.240Z,3.50
2022-12-22T18:56:14.033Z,3.33
2022-12-22T18:58:41.235Z,3.75
2022-12-22T19:01:17.512Z,3.00
2022-12-22T19:03:45.488Z,3.47
2022-12-22T19:06:11.936Z,3.90
2022-12-22T19:08:45.129Z,4.22
2022-12-22T19:11:12.953Z,4.60
2022-12-22T19:13:42.979Z,3.83
2022-12-22T19:16:13.556Z,3.58
2022-12-22T19:18:40.283Z,3.63
2022-12-22T19:21:11.991Z,4.68
2022-12-22T19:23:38.296Z,4.45
2022-12-22T19:26:08.981Z,4.03
2022-12-22T19:28:44.285Z,4.90
2022-12-22T19:31:21.811Z,4.30
2022-12-22T19:33:49.120Z,4.63
2022-12-22T19:36:18.764Z,4.80
2022-12-22T19:38:50.202Z,5.22
2022-12-22T19:41:40.339Z,4.65
2022-12-22T19:44:26.817Z,5.57
2022-12-22T19:46:55.408Z,5.07
2022-12-22T19:49:24.286Z,5.00
2022-12-22T19:51:50.876Z,3.88
2022-12-22T19:54:19.195Z,4.70
2022-12-22T19:56:48.744Z,5.30
2022-12-22T19:59:32.362Z,3.85
2022-12-22T20:02:00.730Z,4.28
2022-12-22T20:04:27.234Z,4.30
2022-12-22T20:06:53.814Z,5.13
2022-12-22T20:09:20.133Z,4.68
2022-12-22T20:11:46.549Z,5.00
2022-12-22T20:14:17.757Z,4.57
2022-12-22T20:16:44.821Z,4.70
2022-12-22T20:19:15.103Z,5.10
2022-12-22T20:21:42.132Z,4.60
2022-12-22T20:24:13.113Z,5.20
2022-12-22T20:26:39.472Z,5.25
2022-12-22T20:29:05.811Z,5.32
2022-12-22T20:31:32.296Z,5.20
2022-12-22T20:34:01.086Z,6.05
2022-12-22T20:36:31.601Z,6.18
2022-12-22T20:38:59.830Z,4.68
2022-12-22T20:41:26.549Z,5.70
2022-12-22T20:43:53.718Z,4.78
2022-12-22T20:46:24.432Z,4.70
2022-12-22T20:49:01.982Z,4.38
2022-12-22T20:51:31.710Z,3.92
2022-12-22T20:53:59.165Z,4.28
2022-12-22T20:56:36.302Z,4.10
2022-12-22T20:59:20.208Z,4.10
2022-12-22T21:01:48.343Z,5.20
2022-12-22T21:04:15.694Z,4.05
2022-12-22T21:06:53.522Z,3.88
2022-12-22T21:09:22.089Z,4.13
2022-12-22T21:11:48.971Z,4.60
2022-12-22T21:14:15.855Z,5.32
2022-12-22T21:16:42.998Z,4.03
2022-12-22T21:19:15.934Z,4.25
2022-12-22T21:21:42.267Z,4.72
2022-12-22T21:24:08.645Z,5.43
2022-12-22T21:26:40.745Z,4.53
2022-12-22T21:29:12.769Z,4.38
2022-12-22T21:31:39.100Z,3.88
2022-12-22T21:34:05.413Z,4.05
2022-12-22T21:36:34.253Z,4.10
2022-12-22T21:39:22.421Z,4.68
2022-12-22T21:42:01.120Z,4.35
2022-12-22T21:44:33.432Z,3.50
2022-12-22T21:47:00.099Z,4.55
2022-12-22T21:49:28.990Z,4.38
2022-12-22T21:51:55.595Z,4.00
2022-12-22T21:54:24.077Z,4.47
2022-12-22T21:56:53.807Z,4.82
2022-12-22T21:59:21.037Z,4.15
2022-12-22T22:01:47.952Z,4.15
2022-12-22T22:04:14.680Z,4.57
2022-12-22T22:06:41.093Z,4.57
2022-12-22T22:09:07.628Z,5.10
2022-12-22T22:11:54.753Z,5.22
2022-12-22T22:14:21.503Z,5.00
2022-12-22T22:16:48.229Z,5.50
2022-12-22T22:19:14.659Z,6.88
2022-12-22T22:21:40.983Z,7.32
2022-12-22T22:24:07.517Z,5.55
2022-12-22T22:26:33.813Z,4.97
2022-12-22T22:29:00.159Z,5.95
2022-12-22T22:31:26.615Z,5.00
2022-12-22T22:33:53.013Z,4.95
2022-12-22T22:36:19.447Z,4.50
2022-12-22T22:38:49.411Z,5.15
2022-12-22T22:41:15.788Z,6.00
2022-12-22T22:43:42.203Z,5.57
2022-12-22T22:46:08.603Z,6.50
2022-12-22T22:48:35.237Z,5.25
2022-12-22T22:51:01.784Z,5.13
2022-12-22T22:53:28.210Z,4.22
2022-12-22T22:55:54.631Z,5.30
2022-12-22T22:58:20.962Z,5.10
2022-12-22T23:00:47.482Z,4.72
2022-12-22T23:03:14.228Z,4.60
2022-12-22T23:05:40.566Z,5.07
2022-12-22T23:08:06.872Z,4.57
2022-12-22T23:10:39.341Z,4.63
2022-12-22T23:13:07.794Z,4.10
2022-12-22T23:15:34.145Z,4.53
2022-12-22T23:18:00.964Z,4.60
2022-12-22T23:20:28.309Z,5.55
2022-12-22T23:22:54.659Z,5.03
2022-12-22T23:25:21.046Z,4.35
2022-12-22T23:27:47.353Z,4.55
2022-12-22T23:30:14.051Z,5.40
2022-12-22T23:32:40.429Z,4.65
2022-12-22T23:35:07.076Z,5.07
2022-12-22T23:37:33.427Z,4.18
2022-12-22T23:40:17.623Z,4.20
2022-12-22T23:42:47.186Z,4.03
2022-12-22T23:45:15.881Z,3.92
2022-12-22T23:47:42.235Z,3.10
2022-12-22T23:50:08.918Z,3.28
2022-12-22T23:52:35.294Z,3.88
2022-12-22T23:55:01.728Z,3.00
2022-12-22T23:57:28.120Z,4.20
2022-12-22T23:59:54.431Z,3.55
